Time;durP1;ratioP1;P1;durP2;ratioP2;P2;SDS_P1;SDS_P2;PMS_P1;PMS_P2;Temp;Humidity;BMP_temperature;BMP_pressure;BME280_temperature;BME280_humidity;BME280_pressure;Samples;Min_cycle;Max_cycle;Signal;HPM_P1;HPM_P2
2021/07/14 00:01:05;;;;;;;18.07;16.17;;;24.40;66.40;;;;;;5120897;27;20229;-66
2021/07/14 00:03:35;;;;;;;18.37;15.50;;;24.40;66.50;;;;;;5102599;28;20288;-66
2021/07/14 00:06:10;;;;;;;16.77;14.97;;;24.40;66.50;;;;;;5117866;27;20210;-66
2021/07/14 00:08:40;;;;;;;18.80;16.27;;;24.40;66.50;;;;;;5123008;27;20566;-66
2021/07/14 00:11:13;;;;;;;17.07;15.33;;;24.30;66.60;;;;;;5115217;27;20269;-66
2021/07/14 00:13:58;;;;;;;17.57;15.77;;;24.30;66.60;;;;;;5117728;27;20192;-66
2021/07/14 00:22:13;;;;;;;17.67;15.43;;;24.30;66.60;;;;;;5120708;27;20647;-65
2021/07/14 00:24:46;;;;;;;17.23;15.43;;;24.30;66.70;;;;;;5123492;27;20630;-65
2021/07/14 00:27:16;;;;;;;17.63;15.27;;;24.30;66.60;;;;;;5120279;27;20199;-65
2021/07/14 00:29:53;;;;;;;17.17;15.30;;;24.30;66.60;;;;;;5121907;27;20650;-66
2021/07/14 00:32:42;;;;;;;16.03;14.13;;;24.30;66.70;;;;;;5114214;27;20210;-66
2021/07/14 00:35:12;;;;;;;15.93;14.23;;;24.30;66.70;;;;;;5117026;27;20528;-66
2021/07/14 00:37:41;;;;;;;17.53;15.67;;;24.30;66.70;;;;;;5114324;27;20192;-66
2021/07/14 00:40:12;;;;;;;18.10;15.43;;;24.30;66.80;;;;;;5118448;27;20891;-66
2021/07/14 00:42:43;;;;;;;18.90;14.80;;;24.30;66.90;;;;;;5118425;27;20191;-65
2021/07/14 00:45:33;;;;;;;19.03;15.60;;;24.30;66.90;;;;;;5116717;27;20224;-66
2021/07/14 00:48:06;;;;;;;16.83;15.03;;;24.20;66.80;;;;;;5127257;27;20210;-65
2021/07/14 00:50:39;;;;;;;16.07;14.47;;;24.20;66.90;;;;;;5117629;27;20192;-65
2021/07/14 00:53:17;;;;;;;16.77;15.03;;;24.20;66.80;;;;;;5126102;27;20212;-65
2021/07/14 00:55:51;;;;;;;18.60;14.77;;;24.20;66.80;;;;;;5121414;27;20513;-65
2021/07/14 00:58:29;;;;;;;15.63;14.03;;;24.20;66.70;;;;;;5121916;27;20278;-65
2021/07/14 01:01:00;;;;;;;15.83;13.47;;;24.20;66.60;;;;;;5125966;28;20190;-65
2021/07/14 01:03:38;;;;;;;15.23;13.63;;;24.30;66.60;;;;;;5117000;28;20213;-65
2021/07/14 01:06:21;;;;;;;15.30;13.70;;;24.30;66.30;;;;;;5129099;28;20208;-65
2021/07/14 01:09:06;;;;;;;15.07;13.63;;;24.30;66.40;;;;;;5114933;28;20511;-65
2021/07/14 01:11:38;;;;;;;14.53;12.60;;;24.30;66.40;;;;;;5111240;28;20184;-66
2021/07/14 01:14:38;;;;;;;15.30;13.10;;;24.30;66.40;;;;;;5105039;28;20869;-66
2021/07/14 01:17:26;;;;;;;14.83;13.33;;;24.30;66.10;;;;;;5121646;28;20206;-66
2021/07/14 01:20:14;;;;;;;13.30;11.87;;;24.40;66.20;;;;;;5112352;28;20216;-65
2021/07/14 01:22:59;;;;;;;13.77;12.37;;;24.40;66.10;;;;;;5119165;28;20215;-65
2021/07/14 01:25:55;;;;;;;14.77;13.23;;;24.40;66.10;;;;;;5114494;28;20647;-65
2021/07/14 01:28:39;;;;;;;14.40;12.50;;;24.40;66.20;;;;;;5120417;28;20773;-65
2021/07/14 01:31:11;;;;;;;15.27;13.77;;;24.40;66.30;;;;;;5115618;28;20200;-65
2021/07/14 01:33:47;;;;;;;18.13;13.43;;;24.30;66.20;;;;;;5097655;28;20199;-65
2021/07/14 01:36:24;;;;;;;15.13;13.27;;;24.30;66.40;;;;;;5124893;28;20208;-65
2021/07/14 01:38:59;;;;;;;13.93;12.53;;;24.40;66.50;;;;;;5123108;28;20191;-65
2021/07/14 01:41:36;;;;;;;15.17;13.60;;;24.30;66.50;;;;;;5115844;28;20200;-65
2021/07/14 01:44:05;;;;;;;18.30;14.17;;;24.30;66.40;;;;;;5115166;28;20192;-65
2021/07/14 01:46:36;;;;;;;15.30;13.60;;;24.30;66.50;;;;;;5114629;28;20208;-64
2021/07/14 01:49:15;;;;;;;14.87;13.03;;;24.30;66.50;;;;;;5111701;28;20196;-64
2021/07/14 01:52:03;;;;;;;15.77;12.43;;;24.40;66.40;;;;;;5118445;27;20200;-65
2021/07/14 01:54:34;;;;;;;14.97;13.03;;;24.30;66.30;;;;;;5117884;27;20195;-65
2021/07/14 01:57:07;;;;;;;13.93;12.53;;;24.40;66.30;;;;;;5122610;27;20196;-65
2021/07/14 01:59:44;;;;;;;14.17;12.33;;;24.40;66.20;;;;;;5127307;27;20229;-64
2021/07/14 02:02:21;;;;;;;14.17;12.73;;;24.40;66.40;;;;;;5115730;27;20249;-64
2021/07/14 02:04:57;;;;;;;13.60;12.17;;;24.40;66.20;;;;;;5124319;27;20723;-64
2021/07/14 02:08:00;;;;;;;16.33;12.87;;;24.30;66.20;;;;;;5125668;27;20227;-64
2021/07/14 02:10:31;;;;;;;14.90;13.40;;;24.30;66.20;;;;;;5119410;27;20192;-65
2021/07/14 02:13:03;;;;;;;16.77;13.43;;;24.30;66.30;;;;;;5120074;27;20188;-65
2021/07/14 02:15:56;;;;;;;15.13;12.33;;;24.30;66.40;;;;;;5122373;27;20196;-65
2021/07/14 02:18:36;;;;;;;14.07;12.40;;;24.30;66.20;;;;;;5125092;27;20204;-65
2021/07/14 02:21:07;;;;;;;14.17;12.70;;;24.30;66.30;;;;;;5117982;27;20649;-65
2021/07/14 02:23:39;;;;;;;16.67;13.73;;;24.30;66.10;;;;;;5120877;27;20205;-65
2021/07/14 02:26:12;;;;;;;14.80;13.30;;;24.30;66.30;;;;;;5127733;27;20208;-65
2021/07/14 02:28:45;;;;;;;16.33;13.13;;;24.30;66.40;;;;;;5120652;27;20838;-65
2021/07/14 02:31:26;;;;;;;13.90;12.43;;;24.30;66.40;;;;;;5120540;27;20629;-65
2021/07/14 02:33:57;;;;;;;14.40;12.77;;;24.30;66.30;;;;;;5121519;27;20203;-65
2021/07/14 02:36:33;;;;;;;15.93;13.67;;;24.30;66.40;;;;;;5130195;27;20207;-65
2021/07/14 02:39:22;;;;;;;15.40;13.27;;;24.30;66.40;;;;;;5122068;27;20200;-65
2021/07/14 02:42:11;;;;;;;16.83;13.30;;;24.30;66.40;;;;;;5125169;27;20223;-65
2021/07/14 02:44:45;;;;;;;16.20;12.67;;;24.30;66.20;;;;;;5126897;27;20253;-65
2021/07/14 02:47:17;;;;;;;16.53;12.80;;;24.30;66.20;;;;;;5123048;27;20196;-65
2021/07/14 02:49:50;;;;;;;15.10;13.60;;;24.30;66.20;;;;;;5123460;27;20180;-65
2021/07/14 02:52:22;;;;;;;16.97;13.40;;;24.30;66.20;;;;;;5116254;27;20195;-65
2021/07/14 02:54:52;;;;;;;15.97;14.03;;;24.30;66.10;;;;;;5102448;28;20203;-65
2021/07/14 02:57:26;;;;;;;14.53;13.13;;;24.30;66.30;;;;;;5119793;27;20264;-64
2021/07/14 02:59:58;;;;;;;15.93;13.10;;;24.30;67.00;;;;;;5126608;27;20259;-65
2021/07/14 03:02:28;;;;;;;17.30;14.17;;;24.30;66.40;;;;;;5119422;27;20219;-65
2021/07/14 03:04:57;;;;;;;14.83;13.33;;;24.20;66.50;;;;;;5121768;27;20232;-65
2021/07/14 03:07:27;;;;;;;19.63;14.70;;;24.20;66.40;;;;;;5123615;27;20199;-65
2021/07/14 03:10:00;;;;;;;16.43;14.60;;;24.20;66.50;;;;;;5126909;27;20208;-65
2021/07/14 03:12:30;;;;;;;18.57;13.63;;;24.20;66.40;;;;;;5123005;27;20187;-65
2021/07/14 03:15:23;;;;;;;14.43;12.20;;;24.30;66.40;;;;;;5117270;27;20290;-65
2021/07/14 03:18:06;;;;;;;16.93;13.23;;;24.30;66.30;;;;;;5128428;27;20203;-65
2021/07/14 03:20:51;;;;;;;17.30;14.00;;;24.30;66.40;;;;;;5119304;27;20295;-65
2021/07/14 03:23:23;;;;;;;18.50;14.00;;;24.30;66.40;;;;;;5124025;27;20203;-65
2021/07/14 03:26:00;;;;;;;19.67;15.00;;;24.30;66.60;;;;;;5120062;27;20227;-65
2021/07/14 03:28:30;;;;;;;16.73;14.30;;;24.20;66.60;;;;;;5128203;27;20732;-65
2021/07/14 03:31:06;;;;;;;17.93;14.43;;;24.20;66.80;;;;;;5114429;27;20204;-65
2021/07/14 03:33:36;;;;;;;16.70;14.53;;;24.20;66.90;;;;;;5122149;27;20204;-65
2021/07/14 03:36:18;;;;;;;16.40;14.57;;;24.20;66.90;;;;;;5122522;27;20200;-65
2021/07/14 03:38:49;;;;;;;16.40;14.07;;;24.20;67.20;;;;;;5124747;27;20212;-65
2021/07/14 03:41:22;;;;;;;14.23;12.83;;;24.10;67.10;;;;;;5127379;27;20196;-65
2021/07/14 03:44:03;;;;;;;14.60;13.10;;;24.10;67.00;;;;;;5117994;27;20199;-65
2021/07/14 03:46:33;;;;;;;15.57;11.83;;;24.10;66.90;;;;;;5118810;27;20218;-64
2021/07/14 03:49:16;;;;;;;13.20;11.77;;;24.10;66.80;;;;;;5119877;27;20283;-64
2021/07/14 03:51:48;;;;;;;13.07;11.77;;;24.20;66.80;;;;;;5126719;27;20679;-65
2021/07/14 03:54:19;;;;;;;13.53;12.13;;;24.20;66.90;;;;;;5118283;27;20203;-65
2021/07/14 03:56:50;;;;;;;13.20;10.87;;;24.20;66.90;;;;;;5133711;27;20616;-64
2021/07/14 03:59:21;;;;;;;12.00;10.37;;;24.10;67.10;;;;;;5120454;27;20191;-64
2021/07/14 04:01:54;;;;;;;10.70;9.60;;;24.10;67.10;;;;;;5135576;27;20192;-65
2021/07/14 04:04:25;;;;;;;10.40;9.30;;;24.00;67.20;;;;;;5122249;27;20224;-65
2021/07/14 04:06:58;;;;;;;10.10;9.00;;;24.00;67.30;;;;;;5133098;27;20326;-63
2021/07/14 04:09:27;;;;;;;9.23;8.33;;;24.00;67.10;;;;;;5111094;27;20215;-63
2021/07/14 04:12:06;;;;;;;9.80;8.33;;;24.00;67.20;;;;;;5110547;27;20192;-63
2021/07/14 04:14:40;;;;;;;9.67;7.80;;;24.00;67.30;;;;;;5125739;27;20196;-63
2021/07/14 04:17:33;;;;;;;10.73;8.33;;;24.00;67.40;;;;;;5120178;27;20203;-65
2021/07/14 04:20:06;;;;;;;8.03;7.23;;;24.00;67.40;;;;;;5112136;27;20201;-65
2021/07/14 04:22:37;;;;;;;8.40;7.60;;;24.00;67.40;;;;;;5108793;27;20218;-65
2021/07/14 04:25:09;;;;;;;8.07;7.27;;;24.00;67.30;;;;;;5113140;27;20216;-65
2021/07/14 04:27:39;;;;;;;7.43;6.73;;;23.90;67.30;;;;;;5119366;27;20187;-65
2021/07/14 04:30:14;;;;;;;7.33;6.57;;;24.00;67.40;;;;;;5120266;27;20192;-63
2021/07/14 04:32:46;;;;;;;8.37;7.20;;;24.00;67.30;;;;;;5115539;27;20188;-64
2021/07/14 04:35:18;;;;;;;7.53;6.73;;;23.90;67.40;;;;;;5124658;27;20811;-63
2021/07/14 04:37:54;;;;;;;7.50;6.80;;;23.90;67.40;;;;;;5122664;27;20192;-63
2021/07/14 04:40:23;;;;;;;7.63;6.83;;;23.90;67.40;;;;;;5117963;27;20223;-63
2021/07/14 04:42:55;;;;;;;7.47;6.70;;;23.90;67.50;;;;;;5110742;27;20199;-63
2021/07/14 04:45:25;;;;;;;7.27;6.67;;;23.90;67.70;;;;;;5117831;27;20263;-63
2021/07/14 04:47:56;;;;;;;7.80;7.00;;;23.90;67.70;;;;;;5115259;27;20709;-63
2021/07/14 04:50:23;;;;;;;8.00;6.60;;;23.90;67.60;;;;;;5112358;27;20222;-64
2021/07/14 04:52:53;;;;;;;7.43;6.73;;;23.90;68.20;;;;;;5122711;27;20196;-65
2021/07/14 04:55:24;;;;;;;7.03;6.43;;;23.90;67.60;;;;;;5117028;27;20197;-65
2021/07/14 04:57:55;;;;;;;7.33;6.63;;;23.90;67.60;;;;;;5116438;27;20211;-65
2021/07/14 05:00:26;;;;;;;10.07;8.27;;;23.90;67.60;;;;;;5118772;27;20256;-65
2021/07/14 05:02:58;;;;;;;9.07;8.20;;;23.90;67.90;;;;;;5120309;27;20204;-65
2021/07/14 05:05:29;;;;;;;10.60;9.63;;;23.80;68.00;;;;;;5119956;28;20246;-63
2021/07/14 05:07:59;;;;;;;10.63;8.60;;;23.70;68.50;;;;;;5115257;27;20556;-63
2021/07/14 05:10:30;;;;;;;9.93;8.87;;;23.70;68.60;;;;;;5119397;28;20196;-64
2021/07/14 05:13:00;;;;;;;10.40;9.40;;;23.70;68.70;;;;;;5114872;28;20219;-65
2021/07/14 05:15:29;;;;;;;11.17;9.60;;;23.70;68.80;;;;;;5119527;28;20214;-65
2021/07/14 05:17:58;;;;;;;12.10;10.13;;;23.60;68.90;;;;;;5125055;28;20198;-64
2021/07/14 05:20:29;;;;;;;15.20;11.07;;;23.60;69.20;;;;;;5114795;28;20219;-64
2021/07/14 05:22:59;;;;;;;21.70;12.83;;;23.60;69.40;;;;;;5119306;27;20216;-64
2021/07/14 05:25:33;;;;;;;22.73;13.77;;;23.60;69.50;;;;;;5128599;27;20238;-64
2021/07/14 05:28:03;;;;;;;21.53;14.10;;;23.50;69.60;;;;;;5120484;27;20229;-64
2021/07/14 05:30:34;;;;;;;18.30;15.30;;;23.50;69.90;;;;;;5115299;27;20192;-63
2021/07/14 05:33:15;;;;;;;16.17;13.67;;;23.40;70.50;;;;;;5123147;27;20219;-63
2021/07/14 05:35:46;;;;;;;15.93;13.50;;;23.30;70.50;;;;;;5126551;27;20204;-64
2021/07/14 05:38:42;;;;;;;15.33;13.23;;;23.30;70.60;;;;;;5119513;27;20280;-63
2021/07/14 05:41:13;;;;;;;20.70;14.07;;;23.30;70.50;;;;;;5127406;27;20208;-63
2021/07/14 05:43:47;;;;;;;19.93;12.57;;;23.30;70.80;;;;;;5118740;27;20577;-63
2021/07/14 05:46:20;;;;;;;14.23;12.73;;;23.30;70.90;;;;;;5120807;27;20696;-63
2021/07/14 05:48:50;;;;;;;14.83;12.87;;;23.30;70.60;;;;;;5115632;27;20193;-63
2021/07/14 05:51:22;;;;;;;13.30;12.00;;;23.40;70.60;;;;;;5122318;27;20578;-63
2021/07/14 05:53:52;;;;;;;13.97;12.60;;;23.40;70.50;;;;;;5126815;27;20188;-63
2021/07/14 05:56:26;;;;;;;13.13;11.80;;;23.30;70.50;;;;;;5114207;27;20211;-64
2021/07/14 05:58:57;;;;;;;13.40;11.50;;;23.40;70.50;;;;;;5128394;27;20664;-64
2021/07/14 06:01:27;;;;;;;14.23;11.80;;;23.40;70.30;;;;;;5120849;27;20211;-65
2021/07/14 06:04:00;;;;;;;13.80;12.40;;;23.40;70.70;;;;;;5124251;27;20645;-63
2021/07/14 06:06:43;;;;;;;16.00;12.93;;;23.40;70.90;;;;;;5116971;27;20236;-62
2021/07/14 06:09:18;;;;;;;19.37;12.87;;;23.40;71.40;;;;;;5127189;27;20589;-62
2021/07/14 06:11:49;;;;;;;16.47;13.00;;;23.40;71.50;;;;;;5120544;27;20252;-63
2021/07/14 06:14:20;;;;;;;14.27;12.87;;;23.40;71.30;;;;;;5125011;27;20211;-63
2021/07/14 06:16:49;;;;;;;17.40;12.13;;;23.40;71.60;;;;;;5115152;27;20215;-63
2021/07/14 06:19:19;;;;;;;14.43;12.93;;;23.40;71.60;;;;;;5105781;27;20632;-63
2021/07/14 06:21:47;;;;;;;14.27;12.77;;;23.40;71.20;;;;;;5121736;27;20631;-62
2021/07/14 06:24:17;;;;;;;13.50;11.90;;;23.30;71.10;;;;;;5120516;27;20207;-62
2021/07/14 06:26:57;;;;;;;13.97;12.53;;;23.40;71.10;;;;;;5111779;27;20892;-62
2021/07/14 06:29:28;;;;;;;13.47;12.13;;;23.30;70.90;;;;;;5122856;27;20193;-62
2021/07/14 06:31:58;;;;;;;45.10;22.63;;;23.40;71.00;;;;;;5131302;27;20195;-63
2021/07/14 06:34:29;;;;;;;45.13;21.40;;;23.40;71.30;;;;;;5121753;27;20274;-64
2021/07/14 06:36:58;;;;;;;37.33;19.77;;;23.50;71.70;;;;;;5121451;27;20207;-64
2021/07/14 06:39:29;;;;;;;23.45;17.52;;;23.50;71.30;;;;;;5110254;27;20428;-64
2021/07/14 06:42:00;;;;;;;20.97;16.10;;;23.60;71.70;;;;;;5117628;27;20213;-63
2021/07/14 06:44:37;;;;;;;23.80;14.20;;;23.60;71.70;;;;;;5117526;27;20686;-66
2021/07/14 06:47:05;;;;;;;19.27;14.67;;;23.60;72.20;;;;;;5118134;27;20238;-67
2021/07/14 06:49:39;;;;;;;16.63;13.73;;;23.70;72.40;;;;;;5117567;27;20207;-68
2021/07/14 06:52:11;;;;;;;14.20;12.73;;;23.80;72.60;;;;;;5118803;27;20204;-69
2021/07/14 06:54:42;;;;;;;13.10;11.70;;;23.90;72.90;;;;;;5114255;27;20585;-69
2021/07/14 06:57:14;;;;;;;14.03;12.00;;;24.00;71.90;;;;;;5116701;27;20204;-65
2021/07/14 06:59:44;;;;;;;13.77;11.20;;;24.00;71.40;;;;;;5121324;27;20200;-68
2021/07/14 07:02:15;;;;;;;13.17;11.77;;;24.20;71.70;;;;;;5117720;27;20780;-67
2021/07/14 07:04:48;;;;;;;13.37;11.60;;;24.30;71.50;;;;;;5120079;27;20263;-65
2021/07/14 07:07:28;;;;;;;13.60;11.83;;;24.30;71.50;;;;;;5117298;27;20266;-65
2021/07/14 07:09:56;;;;;;;13.00;10.73;;;24.40;71.50;;;;;;5112257;27;20211;-66
2021/07/14 07:12:27;;;;;;;15.83;11.93;;;24.40;71.40;;;;;;5119091;27;20200;-67
2021/07/14 07:15:21;;;;;;;13.93;12.00;;;24.50;71.40;;;;;;5122933;27;20191;-67
2021/07/14 07:17:53;;;;;;;12.73;11.43;;;24.60;70.60;;;;;;5119231;27;20208;-68
2021/07/14 07:20:30;;;;;;;12.63;11.33;;;24.60;70.20;;;;;;5120307;27;20229;-66
2021/07/14 07:22:59;;;;;;;13.37;11.97;;;24.70;70.20;;;;;;5119568;27;20754;-68
2021/07/14 07:25:32;;;;;;;13.90;12.57;;;24.70;69.90;;;;;;5123508;27;20192;-68
2021/07/14 07:28:03;;;;;;;12.63;11.33;;;24.80;69.70;;;;;;5121118;27;20199;-66
2021/07/14 07:30:32;;;;;;;11.80;10.43;;;24.80;69.30;;;;;;5094122;27;20711;-68
2021/07/14 07:33:02;;;;;;;13.07;11.67;;;24.90;69.30;;;;;;5124956;27;20223;-68
2021/07/14 07:35:34;;;;;;;13.97;12.57;;;24.90;69.10;;;;;;5118408;27;20243;-67
2021/07/14 07:38:09;;;;;;;12.40;11.20;;;25.00;69.00;;;;;;5116617;27;20200;-67
2021/07/14 07:40:40;;;;;;;13.17;11.53;;;25.00;68.30;;;;;;5126939;27;20207;-70
2021/07/14 07:43:10;;;;;;;12.40;11.20;;;25.10;68.00;;;;;;5099755;27;20196;-67
2021/07/14 07:45:41;;;;;;;12.77;11.43;;;25.10;67.50;;;;;;5119843;27;20208;-66
2021/07/14 07:48:11;;;;;;;22.80;11.87;;;25.10;67.40;;;;;;5111907;27;20224;-70
2021/07/14 07:50:43;;;;;;;12.43;11.17;;;25.10;67.50;;;;;;5122785;27;20632;-69
2021/07/14 07:53:14;;;;;;;13.93;10.30;;;25.10;67.70;;;;;;5118314;27;20207;-69
2021/07/14 07:55:48;;;;;;;12.83;10.97;;;25.20;67.60;;;;;;5115872;27;20298;-69
2021/07/14 07:58:21;;;;;;;12.73;11.57;;;25.20;67.40;;;;;;5118907;27;20195;-70
2021/07/14 08:00:51;;;;;;;13.67;11.53;;;25.30;67.40;;;;;;5110608;27;20231;-65
2021/07/14 08:03:23;;;;;;;14.57;11.53;;;25.30;67.20;;;;;;5116395;27;20672;-68
2021/07/14 08:05:53;;;;;;;13.90;12.43;;;25.40;67.00;;;;;;5114714;27;20813;-69
2021/07/14 08:08:24;;;;;;;12.33;11.03;;;25.40;66.70;;;;;;5116618;27;20618;-70
2021/07/14 08:10:55;;;;;;;14.67;11.83;;;25.40;66.70;;;;;;5119113;27;20287;-68
2021/07/14 08:13:26;;;;;;;13.20;11.90;;;25.40;66.50;;;;;;5126421;27;20191;-65
2021/07/14 08:15:57;;;;;;;12.50;11.20;;;25.30;66.30;;;;;;5114213;27;20204;-67
2021/07/14 08:18:25;;;;;;;12.77;11.47;;;25.30;66.60;;;;;;5121680;27;20211;-68
2021/07/14 08:20:53;;;;;;;13.87;11.90;;;25.40;67.00;;;;;;5120337;27;20207;-70
2021/07/14 08:23:37;;;;;;;12.03;10.60;;;25.40;67.00;;;;;;5114371;27;20566;-71
2021/07/14 08:26:09;;;;;;;13.80;11.93;;;25.40;66.90;;;;;;5112857;27;20231;-71
2021/07/14 08:29:02;;;;;;;13.17;11.90;;;25.40;66.50;;;;;;5119517;27;20275;-70
2021/07/14 08:31:33;;;;;;;13.63;11.23;;;25.30;66.20;;;;;;5124335;27;20241;-70
2021/07/14 08:34:04;;;;;;;13.60;12.20;;;25.30;66.30;;;;;;5116632;27;20220;-69
2021/07/14 08:36:35;;;;;;;16.33;12.63;;;25.30;65.90;;;;;;5118161;27;20200;-67
2021/07/14 08:39:04;;;;;;;14.07;12.67;;;25.30;66.20;;;;;;5122606;27;20249;-68
2021/07/14 08:41:35;;;;;;;14.73;12.87;;;25.30;66.10;;;;;;5108229;27;20227;-69
2021/07/14 08:44:07;;;;;;;14.37;12.90;;;25.30;66.10;;;;;;5119058;27;20578;-70
2021/07/14 08:46:38;;;;;;;13.10;11.83;;;25.30;66.20;;;;;;5114653;27;20295;-65
2021/07/14 08:49:21;;;;;;;13.40;12.00;;;25.30;66.10;;;;;;5119143;27;20206;-69
2021/07/14 08:51:53;;;;;;;12.83;11.10;;;25.30;65.80;;;;;;5124100;27;20188;-67
2021/07/14 08:54:22;;;;;;;14.40;11.90;;;25.30;66.10;;;;;;5116852;27;20605;-66
2021/07/14 08:56:53;;;;;;;12.50;11.37;;;25.30;65.80;;;;;;5123646;28;20210;-69
2021/07/14 08:59:29;;;;;;;13.70;12.40;;;25.30;65.80;;;;;;5117689;27;20766;-69
2021/07/14 09:02:00;;;;;;;13.13;11.83;;;25.30;65.70;;;;;;5120383;27;20287;-68
2021/07/14 09:04:32;;;;;;;14.90;11.93;;;25.30;65.80;;;;;;5115096;28;20228;-69
2021/07/14 09:07:15;;;;;;;14.90;12.87;;;25.30;65.30;;;;;;5110804;28;20248;-68
2021/07/14 09:09:45;;;;;;;13.13;11.83;;;25.30;65.30;;;;;;5115632;27;20181;-68
2021/07/14 09:12:36;;;;;;;12.90;11.60;;;25.40;65.80;;;;;;5116467;28;20188;-68
2021/07/14 09:15:13;;;;;;;14.03;12.57;;;25.40;64.80;;;;;;5110892;27;20204;-69
2021/07/14 09:17:53;;;;;;;12.53;11.23;;;25.40;64.60;;;;;;5116436;28;20837;-68
2021/07/14 09:20:31;;;;;;;13.07;11.77;;;25.40;64.50;;;;;;5116325;28;20782;-69
2021/07/14 09:23:17;;;;;;;13.07;11.77;;;25.40;64.60;;;;;;5114837;28;20210;-66
2021/07/14 09:26:11;;;;;;;12.50;11.20;;;25.50;64.80;;;;;;5112872;28;20592;-67
2021/07/14 09:28:41;;;;;;;15.53;14.13;;;25.50;65.30;;;;;;5122902;28;20195;-68
2021/07/14 09:31:30;;;;;;;15.40;12.80;;;25.50;64.30;;;;;;5113463;28;20800;-66
2021/07/14 09:34:02;;;;;;;16.77;14.50;;;25.50;64.70;;;;;;5113053;28;20199;-66
2021/07/14 09:36:34;;;;;;;15.73;14.03;;;25.50;64.30;;;;;;5116596;28;20304;-66
2021/07/14 09:39:06;;;;;;;15.53;13.97;;;25.50;64.20;;;;;;5107206;28;20195;-64
2021/07/14 09:41:38;;;;;;;15.90;14.20;;;25.50;64.00;;;;;;5117002;28;20248;-66
2021/07/14 09:44:26;;;;;;;17.80;15.77;;;25.50;64.20;;;;;;5117794;28;20594;-65
2021/07/14 09:47:20;;;;;;;18.00;14.53;;;25.50;63.90;;;;;;5120533;28;20216;-65
2021/07/14 09:49:52;;;;;;;16.83;14.50;;;25.60;64.00;;;;;;5114319;28;20201;-66
2021/07/14 09:52:23;;;;;;;18.83;15.77;;;25.50;64.00;;;;;;5114858;28;20633;-68
2021/07/14 09:55:05;;;;;;;22.13;15.20;;;25.60;63.80;;;;;;5115760;28;20208;-68
2021/07/14 09:57:37;;;;;;;17.73;15.93;;;25.60;63.80;;;;;;5120960;28;20212;-66
2021/07/14 10:00:36;;;;;;;16.43;14.03;;;25.50;63.70;;;;;;5116847;27;20197;-66
2021/07/14 10:03:09;;;;;;;16.77;15.07;;;25.60;64.10;;;;;;5117049;28;20223;-66
2021/07/14 10:05:50;;;;;;;16.93;15.23;;;25.60;63.80;;;;;;5112354;28;20239;-64
2021/07/14 10:08:22;;;;;;;23.23;15.93;;;25.60;63.70;;;;;;5101535;28;20215;-66
2021/07/14 10:11:23;;;;;;;18.40;16.40;;;25.60;63.90;;;;;;5119570;27;20253;-66
2021/07/14 10:14:04;;;;;;;16.40;14.70;;;25.60;63.70;;;;;;5117132;27;20200;-65
2021/07/14 10:16:42;;;;;;;17.43;15.63;;;25.60;63.90;;;;;;5122982;27;20203;-61
2021/07/14 10:19:19;;;;;;;17.93;15.13;;;25.60;63.60;;;;;;5111393;27;20659;-62
2021/07/14 10:22:10;;;;;;;17.77;15.87;;;25.50;63.60;;;;;;5119853;27;20196;-62
2021/07/14 10:24:39;;;;;;;20.30;15.57;;;25.40;64.00;;;;;;5121085;27;20235;-62
2021/07/14 10:27:22;;;;;;;16.23;14.37;;;25.30;64.50;;;;;;5118325;27;20308;-62
2021/07/14 10:29:53;;;;;;;16.77;15.07;;;25.30;65.20;;;;;;5121793;27;20648;-62
2021/07/14 10:32:24;;;;;;;19.27;16.30;;;25.20;65.00;;;;;;5125377;27;20240;-62
2021/07/14 10:34:55;;;;;;;17.33;15.53;;;25.20;64.40;;;;;;5118319;27;20211;-62
2021/07/14 10:37:23;;;;;;;16.50;14.80;;;25.10;64.30;;;;;;5121062;27;20215;-61
2021/07/14 10:39:57;;;;;;;18.30;16.40;;;25.00;64.70;;;;;;5122287;27;20232;-61
2021/07/14 10:42:27;;;;;;;18.17;16.30;;;24.90;64.70;;;;;;5115851;27;20261;-61
2021/07/14 10:44:58;;;;;;;17.97;15.73;;;24.90;64.70;;;;;;5119337;27;20816;-61
2021/07/14 10:47:39;;;;;;;18.07;16.27;;;24.80;64.50;;;;;;5118691;27;20215;-61
2021/07/14 10:50:18;;;;;;;17.93;16.13;;;24.70;64.90;;;;;;5122977;27;20287;-62
2021/07/14 10:52:52;;;;;;;17.83;15.93;;;24.60;65.10;;;;;;5104867;27;20200;-62
2021/07/14 10:55:26;;;;;;;17.73;15.83;;;24.50;65.30;;;;;;5111383;27;20210;-62
2021/07/14 10:57:56;;;;;;;21.25;19.05;;;24.50;65.60;;;;;;5098567;28;20440;-64
2021/07/14 11:00:26;;;;;;;18.97;17.07;;;24.40;66.00;;;;;;5122901;27;20195;-63
2021/07/14 11:02:57;;;;;;;18.90;16.97;;;24.40;66.60;;;;;;5115715;27;20210;-65
2021/07/14 11:05:45;;;;;;;17.87;16.07;;;24.50;67.00;;;;;;5126135;27;20673;-65
2021/07/14 11:08:50;;;;;;;20.43;16.33;;;24.50;66.80;;;;;;5099658;27;20243;-63
2021/07/14 11:11:39;;;;;;;18.30;16.37;;;24.60;66.90;;;;;;5120333;27;20743;-63
2021/07/14 11:14:42;;;;;;;17.90;16.10;;;24.60;66.70;;;;;;5112685;27;20227;-64
2021/07/14 11:17:32;;;;;;;18.47;16.57;;;24.70;66.80;;;;;;5117337;27;20734;-63
2021/07/14 11:20:12;;;;;;;18.07;16.27;;;24.70;66.50;;;;;;5111445;27;20268;-63
2021/07/14 11:22:51;;;;;;;17.80;15.90;;;24.70;66.50;;;;;;5119702;27;20192;-64
2021/07/14 11:25:27;;;;;;;16.87;15.17;;;24.80;66.30;;;;;;5119527;27;20200;-62
2021/07/14 11:28:15;;;;;;;17.87;16.07;;;24.80;66.10;;;;;;5119826;27;20226;-63
2021/07/14 11:30:50;;;;;;;17.73;15.43;;;24.80;65.90;;;;;;5120437;27;20212;-63
2021/07/14 11:33:29;;;;;;;18.53;16.57;;;24.80;65.90;;;;;;5120362;27;20194;-62
2021/07/14 11:36:13;;;;;;;20.03;16.20;;;24.80;66.00;;;;;;5113867;27;20200;-62
2021/07/14 11:38:55;;;;;;;19.23;16.57;;;24.70;66.00;;;;;;5113572;27;20192;-62
2021/07/14 11:41:36;;;;;;;18.50;16.43;;;24.70;66.20;;;;;;5117053;27;20208;-62
2021/07/14 11:44:37;;;;;;;17.40;15.60;;;24.70;66.40;;;;;;5119788;27;20282;-61
2021/07/14 11:47:36;;;;;;;18.83;15.40;;;24.70;66.70;;;;;;5088264;27;20238;-62
2021/07/14 11:50:10;;;;;;;17.47;15.50;;;24.70;66.50;;;;;;5113526;27;20196;-63
2021/07/14 11:52:53;;;;;;;18.17;16.10;;;24.70;66.80;;;;;;5119242;27;20297;-62
2021/07/14 11:55:36;;;;;;;18.77;15.37;;;24.70;66.40;;;;;;5120399;27;20207;-61
2021/07/14 11:58:06;;;;;;;18.67;15.30;;;24.70;66.90;;;;;;5125368;27;20565;-62
2021/07/14 12:00:36;;;;;;;16.93;15.13;;;24.70;66.60;;;;;;5118187;27;20214;-63
2021/07/14 12:03:06;;;;;;;17.23;15.47;;;24.70;66.50;;;;;;5116848;27;20691;-63
2021/07/14 12:05:36;;;;;;;17.80;15.20;;;24.70;66.40;;;;;;5116133;27;20235;-60
2021/07/14 12:08:13;;;;;;;17.97;15.27;;;24.70;66.70;;;;;;5111525;27;20220;-61
2021/07/14 12:10:54;;;;;;;18.17;16.13;;;24.80;66.40;;;;;;5113826;27;20865;-61
2021/07/14 12:13:42;;;;;;;20.50;16.17;;;24.70;66.40;;;;;;5116649;27;20220;-63
2021/07/14 12:16:30;;;;;;;18.70;16.20;;;24.70;67.10;;;;;;5119333;27;20203;-63
2021/07/14 12:19:01;;;;;;;15.93;14.30;;;24.70;66.50;;;;;;5113627;27;20206;-63
2021/07/14 12:21:45;;;;;;;17.20;15.33;;;24.70;66.70;;;;;;5121870;27;20283;-63
2021/07/14 12:24:28;;;;;;;14.80;13.27;;;24.70;66.70;;;;;;5118962;27;20238;-63
2021/07/14 12:27:20;;;;;;;18.57;15.93;;;24.70;66.70;;;;;;5122577;27;20207;-63
2021/07/14 12:30:13;;;;;;;17.10;15.07;;;24.70;66.60;;;;;;5113733;27;20196;-63
2021/07/14 12:32:58;;;;;;;17.30;15.50;;;24.60;67.50;;;;;;5113105;27;20188;-60
2021/07/14 12:35:33;;;;;;;17.50;14.77;;;24.60;66.90;;;;;;5114306;27;20207;-59
2021/07/14 12:38:09;;;;;;;14.97;13.37;;;24.50;67.00;;;;;;5119959;27;20280;-63
2021/07/14 12:40:51;;;;;;;14.57;12.63;;;24.50;67.60;;;;;;5119846;27;20191;-64
2021/07/14 12:43:24;;;;;;;15.63;12.70;;;24.60;67.50;;;;;;5121191;27;20257;-64
2021/07/14 12:45:59;;;;;;;14.57;12.60;;;24.60;67.80;;;;;;5119064;27;20194;-65
2021/07/14 12:48:31;;;;;;;14.93;13.20;;;24.70;67.70;;;;;;5121463;27;20284;-64
2021/07/14 12:51:04;;;;;;;14.27;12.77;;;24.70;67.50;;;;;;5114656;27;20195;-65
2021/07/14 12:53:33;;;;;;;16.73;13.53;;;24.80;67.20;;;;;;5116150;27;20703;-66
2021/07/14 12:56:02;;;;;;;15.67;13.40;;;24.70;66.50;;;;;;5120645;27;20203;-63
2021/07/14 12:58:34;;;;;;;18.97;12.30;;;24.70;66.40;;;;;;5117634;27;20207;-65
2021/07/14 13:01:09;;;;;;;14.37;12.87;;;24.80;67.40;;;;;;5124380;27;20226;-63
2021/07/14 13:03:45;;;;;;;14.30;12.80;;;24.80;67.20;;;;;;5115529;27;20214;-66
2021/07/14 13:06:14;;;;;;;13.53;11.97;;;24.90;67.30;;;;;;5122990;28;20239;-67
2021/07/14 13:08:50;;;;;;;15.33;11.67;;;24.90;67.90;;;;;;5113197;28;20236;-66
2021/07/14 13:11:21;;;;;;;16.00;12.30;;;25.00;66.90;;;;;;5112759;28;20199;-67
2021/07/14 13:13:53;;;;;;;12.97;11.67;;;25.10;67.10;;;;;;5114443;28;20188;-65
2021/07/14 13:16:25;;;;;;;13.47;12.03;;;25.10;67.00;;;;;;5119886;28;20202;-66